Flight Track Log - Related Links

Times and Time Zones

All times are in EDT time to prevent confusion due to time zone crossing. See the AWI3551 flight status page for this flight to view local times or setup timezone preferences in your user account.

Time Position Orientation Groundspeed Altitude Reporting Facility
EDT Latitude Longitude Course Direction KTS MPH feet Rate Location/Type
Wed 05:29:14 AM 42.9333 -78.7500 174° South 158 182 1,500  Level Buffalo TRACON
Wed 05:29:56 AM 42.9000 -78.7833 216° Southwest 170 196 3,200 1,922 Climbing Buffalo TRACON
Wed 05:30:57 AM 42.8381 -78.7881 183° South 228 262 4,800 2,231 Climbing Cleveland Center
Wed 05:31:57 AM 42.7647 -78.7675 168° South 263 303 7,700 2,750 Climbing Cleveland Center
Wed 05:32:00 AM 42.5213 -78.6647 173° South  Level FlightAware Approximate
Wed 05:32:57 AM 42.6894 -78.7472 169° South 288 331 10,300  Level Cleveland Center
Wed 05:33:00 AM 42.4182 -78.6500 180° South  Level FlightAware Approximate
Wed 05:33:57 AM 42.6036 -78.7272 170° South 294 338 12,800  Level Cleveland Center
Wed 05:34:00 AM 42.3148 -78.6426 174° South  Level FlightAware Approximate
Wed 05:34:57 AM 42.5158 -78.7100 172° South 310 357 15,300  Level Cleveland Center
Wed 05:35:57 AM 42.4217 -78.6903 171° South 323 372 17,500 1,900 Climbing Cleveland Center
Wed 05:36:57 AM 42.3297 -78.6678 170° South 335 386 19,100 1,700 Climbing Cleveland Center
Wed 05:37:57 AM 42.2333 -78.6453 170° South 340 391 20,900 1,500 Climbing Cleveland Center
Wed 05:38:57 AM 42.1414 -78.6314 174° South 353 406 22,100 1,300 Climbing Cleveland Center
Wed 05:39:57 AM 42.0447 -78.5811 159° South 360 414 23,500 1,350 Climbing Cleveland Center
Wed 05:40:57 AM 41.9500 -78.5283 157° South 366 421 24,800 750 Climbing Cleveland Center
Wed 05:41:57 AM 41.8469 -78.4731 158° South 379 436 25,000 100 Climbing Cleveland Center
Wed 05:42:57 AM 41.7353 -78.4156 159° South 403 464 25,000  Level Cleveland Center
Wed 05:43:57 AM 41.6194 -78.3556 159° South 430 495 25,000  Level Cleveland Center
Wed 05:44:57 AM 41.5014 -78.2931 158° South 445 512 25,000  Level Cleveland Center
Wed 05:45:54 AM 41.3847 -78.2344 159° South 447 514 25,000  Level New York Center
Wed 05:46:52 AM 41.2678 -78.1719 158° South 452 520 25,000  Level New York Center
Wed 05:47:53 AM 41.1525 -78.1153 160° South 452 520 25,000  Level New York Center
Wed 05:48:54 AM 41.0333 -78.0528 158° South 452 520 25,000  Level New York Center
Wed 05:49:52 AM 40.9186 -77.9856 156° South 452 520 25,000  Level New York Center
Wed 05:50:52 AM 40.8342 -77.8642 133° Southeast 440 506 25,000 -590 Level New York Center
Wed 05:51:54 AM 40.7519 -77.7433 132° Southeast 445 512 23,800 -1,686 Descending New York Center
Wed 05:52:53 AM 40.6678 -77.6142 131° Southeast 451 519 21,600 -2,100 Descending New York Center
Wed 05:53:54 AM 40.5889 -77.4997 132° Southeast 444 511 19,600 -1,780 Descending New York Center
Wed 05:54:51 AM 40.5139 -77.3858 131° Southeast 424 488 18,100 -814 Descending New York Center
Wed 05:55:52 AM 40.4328 -77.3072 144° Southeast 382 440 18,000 -50 Descending New York Center
Wed 05:56:51 AM 40.3597 -77.2703 159° South 361 415 18,000  Level New York Center
Wed 05:57:54 AM 40.2539 -77.2225 161° South 346 398 18,000  Level New York Center
Wed 05:58:52 AM 40.1625 -77.1786 160° South 341 392 18,000  Level New York Center
Wed 05:59:53 AM 40.0939 -77.0989 138° Southeast 341 392 18,000  Level New York Center
Wed 06:00:51 AM 40.0872 -76.9872 94° East 302 348 18,000 -50 Level New York Center
Wed 06:01:52 AM 40.0956 -76.8683 85° East 298 343 17,900 -500 Descending New York Center
Wed 06:02:51 AM 40.1008 -76.7658 86° East 313 360 17,000 -1,000 Descending New York Center
Wed 06:03:52 AM 40.1072 -76.6414 86° East 308 354 15,900 -1,041 Descending New York Center
Wed 06:04:52 AM 40.1106 -76.5303 88° East 308 354 14,900 -1,000 Descending New York Center
Wed 06:05:52 AM 40.1158 -76.4194 86° East 308 354 13,900 -1,000 Descending New York Center
Wed 06:06:52 AM 40.1208 -76.3114 87° East 303 349 12,900 -950 Descending New York Center
Wed 06:07:52 AM 40.1150 -76.2158 95° East 298 343 12,000 -1,041 Descending New York Center
Wed 06:08:53 AM 40.1078 -76.1011 95° East 292 336 10,800 -1,041 Descending New York Center
Wed 06:09:53 AM 40.0997 -76.0003 96° East 292 336 9,900 -958 Descending New York Center
Wed 06:10:52 AM 40.0936 -75.8992 94° East 287 330 8,900 -1,008 Descending New York Center
Wed 06:11:52 AM 40.0856 -75.8011 96° East 272 313 7,900 -984 Descending New York Center
Wed 06:12:54 AM 40.0875 -75.7061 88° East 272 313 6,900 -958 Descending New York Center
Wed 06:13:51 AM 40.0872 -75.6083 90° East 267 307 6,000 -807 Descending New York Center
Wed 06:14:53 AM 40.0869 -75.5161 90° East 267 307 5,300 -496 Descending New York Center
Wed 06:15:52 AM 40.0756 -75.4342 100° East 239 275 5,000 -403 Descending New York Center
Wed 06:16:52 AM 40.0247 -75.4036 155° Southeast 189 217 4,500 -492 Descending New York Center
Wed 06:17:54 AM 39.9733 -75.3839 164° South 194 223 4,000 -250 Descending New York Center
Wed 06:18:52 AM 39.9244 -75.3561 156° South 194 223 4,000  Level New York Center
Wed 06:19:07 AM 39.9167 -75.3500 149° Southeast 191 220 4,000 -640 Level Philadelphia TRACON
Wed 06:20:07 AM 39.8667 -75.3333 166° South 195 224 3,200 -476 Descending Philadelphia TRACON
Wed 06:21:13 AM 39.8000 -75.3000 159° South 189 217 3,000 -300 Descending Philadelphia TRACON
Wed 06:22:07 AM 39.7667 -75.2667 142° Southeast 190 219 2,600 -579 Descending Philadelphia TRACON
Wed 06:23:07 AM 39.7833 -75.2167 67° East 145 167 1,900 -700 Descending Philadelphia TRACON

Login

Don't have an account? Register now (free) for customized features, flight alerts, and more!